createdAt,value
2023-01-01T00:02:01.345Z,13.20
2023-01-01T00:04:28.826Z,13.06
2023-01-01T00:06:55.148Z,13.04
2023-01-01T00:09:40.045Z,13.02
2023-01-01T00:12:06.470Z,14.32
2023-01-01T00:14:32.787Z,12.81
2023-01-01T00:16:59.136Z,12.83
2023-01-01T00:19:25.415Z,12.55
2023-01-01T00:21:51.791Z,12.47
2023-01-01T00:24:18.057Z,12.71
2023-01-01T00:26:44.390Z,12.65
2023-01-01T00:29:10.913Z,13.21
2023-01-01T00:31:37.558Z,12.85
2023-01-01T00:34:03.959Z,12.71
2023-01-01T00:36:30.902Z,12.71
2023-01-01T00:38:57.220Z,12.79
2023-01-01T00:41:23.607Z,12.73
2023-01-01T00:43:50.031Z,12.69
2023-01-01T00:46:16.518Z,12.62
2023-01-01T00:48:42.995Z,12.67
2023-01-01T00:51:09.391Z,12.61
2023-01-01T00:53:35.927Z,12.36
2023-01-01T00:56:02.792Z,12.32
2023-01-01T00:58:29.128Z,12.28
2023-01-01T01:00:55.568Z,12.25
2023-01-01T01:03:28.506Z,12.22
2023-01-01T01:06:03.894Z,12.16
2023-01-01T01:08:35.628Z,12.23
2023-01-01T01:11:11.910Z,12.14
2023-01-01T01:13:39.437Z,11.86
2023-01-01T01:16:21.562Z,11.65
2023-01-01T01:18:51.837Z,12.33
2023-01-01T01:21:20.255Z,11.55
2023-01-01T01:23:47.157Z,11.53
2023-01-01T01:26:16.217Z,11.43
2023-01-01T01:28:49.030Z,11.23
2023-01-01T01:31:16.348Z,11.49
2023-01-01T01:33:43.465Z,11.51
2023-01-01T01:36:10.580Z,12.21
2023-01-01T01:38:36.920Z,11.44
2023-01-01T01:41:04.351Z,11.39
2023-01-01T01:43:33.681Z,11.62
2023-01-01T01:46:07.055Z,12.97
2023-01-01T01:48:39.405Z,11.61
2023-01-01T01:51:07.340Z,11.80
2023-01-01T01:53:37.026Z,11.93
2023-01-01T01:56:08.239Z,12.07
2023-01-01T01:58:34.925Z,12.22
2023-01-01T02:01:01.267Z,12.50
2023-01-01T02:03:40.487Z,12.72
2023-01-01T02:06:06.942Z,12.80
2023-01-01T02:08:34.343Z,12.90
2023-01-01T02:11:00.797Z,13.18
2023-01-01T02:13:27.630Z,13.21
2023-01-01T02:16:07.874Z,13.33
2023-01-01T02:18:51.130Z,13.44
2023-01-01T02:21:22.189Z,13.35
2023-01-01T02:24:15.325Z,13.42
2023-01-01T02:26:57.907Z,13.59
2023-01-01T02:29:42.832Z,13.55
2023-01-01T02:32:14.514Z,13.82
2023-01-01T02:34:46.707Z,13.85
2023-01-01T02:37:17.182Z,13.91
2023-01-01T02:39:51.246Z,13.83
2023-01-01T02:42:18.055Z,13.88
2023-01-01T02:44:48.617Z,13.79
2023-01-01T02:47:18.445Z,14.06
2023-01-01T02:50:16.153Z,14.12
2023-01-01T02:52:52.327Z,13.94
2023-01-01T02:55:37.138Z,14.15
2023-01-01T02:58:30.443Z,14.15
2023-01-01T03:01:04.957Z,14.16
2023-01-01T03:03:41.019Z,14.17
2023-01-01T03:06:22.954Z,14.03
2023-01-01T03:09:13.650Z,14.10
2023-01-01T03:11:55.260Z,13.93
2023-01-01T03:14:35.337Z,13.92
2023-01-01T03:17:34.658Z,14.09
2023-01-01T03:20:06.123Z,14.30
2023-01-01T03:25:12.989Z,13.98
2023-01-01T03:27:52.404Z,13.98
2023-01-01T03:30:20.908Z,13.93
2023-01-01T03:33:00.071Z,13.87
2023-01-01T03:35:49.684Z,13.96
2023-01-01T03:38:25.927Z,13.68
2023-01-01T03:40:57.880Z,13.61
2023-01-01T03:43:41.806Z,13.73
2023-01-01T03:46:09.938Z,13.59
2023-01-01T03:49:02.511Z,13.68
2023-01-01T03:51:55.962Z,13.73
2023-01-01T03:54:32.650Z,13.67
2023-01-01T03:57:11.397Z,13.63
2023-01-01T03:59:49.801Z,13.85
2023-01-01T04:02:21.272Z,13.94
2023-01-01T04:04:49.326Z,14.04
2023-01-01T04:07:16.118Z,14.23
2023-01-01T04:09:48.745Z,14.18
2023-01-01T04:12:16.644Z,14.18
2023-01-01T04:14:43.407Z,14.15
2023-01-01T04:17:11.499Z,14.18
2023-01-01T04:19:38.275Z,14.15
2023-01-01T04:22:05.299Z,13.91
2023-01-01T04:24:31.709Z,14.10
2023-01-01T04:26:58.078Z,14.03
2023-01-01T04:29:24.514Z,13.91
2023-01-01T04:31:50.819Z,13.90
2023-01-01T04:34:17.366Z,13.86
2023-01-01T04:36:43.666Z,13.95
2023-01-01T04:39:10.095Z,13.86
2023-01-01T04:41:36.466Z,13.76
2023-01-01T04:44:03.070Z,13.62
2023-01-01T04:46:29.296Z,13.91
2023-01-01T04:48:55.576Z,13.76
2023-01-01T04:51:22.317Z,13.75
2023-01-01T04:53:49.077Z,13.67
2023-01-01T04:56:20.636Z,13.99
2023-01-01T04:58:47.799Z,14.03
2023-01-01T05:01:24.813Z,14.00
2023-01-01T05:03:51.258Z,13.84
2023-01-01T05:06:18.429Z,13.72
2023-01-01T05:08:47.124Z,13.66
2023-01-01T05:11:22.443Z,13.62
2023-01-01T05:13:51.786Z,13.80
2023-01-01T05:16:20.615Z,13.68
2023-01-01T05:18:47.585Z,13.63
2023-01-01T05:21:34.782Z,13.56
2023-01-01T05:24:03.773Z,13.50
2023-01-01T05:26:33.082Z,13.48
2023-01-01T05:29:00.644Z,13.56
2023-01-01T05:31:29.669Z,13.48
2023-01-01T05:33:57.259Z,13.33
2023-01-01T05:36:26.606Z,13.51
2023-01-01T05:38:53.541Z,13.47
2023-01-01T05:41:21.769Z,13.65
2023-01-01T05:43:49.126Z,13.55
2023-01-01T05:46:21.159Z,13.41
2023-01-01T05:48:48.527Z,13.42
2023-01-01T05:51:17.947Z,13.41
2023-01-01T05:53:44.684Z,13.46
2023-01-01T05:56:12.578Z,13.36
2023-01-01T05:58:39.366Z,13.22
2023-01-01T06:01:11.017Z,13.11
2023-01-01T06:03:37.435Z,13.21
2023-01-01T06:06:12.616Z,13.38
2023-01-01T06:08:39.322Z,13.25
2023-01-01T06:11:09.069Z,13.24
2023-01-01T06:13:36.376Z,13.27
2023-01-01T06:16:04.007Z,13.28
2023-01-01T06:18:32.802Z,13.24
2023-01-01T06:21:10.347Z,13.11
2023-01-01T06:23:37.015Z,13.15
2023-01-01T06:26:14.079Z,13.32
2023-01-01T06:28:41.983Z,13.47
2023-01-01T06:31:10.904Z,13.38
2023-01-01T06:33:38.527Z,13.33
2023-01-01T06:36:07.864Z,13.38
2023-01-01T06:38:36.347Z,13.46
2023-01-01T06:41:05.649Z,13.13
2023-01-01T06:43:33.433Z,13.11
2023-01-01T06:46:00.540Z,13.10
2023-01-01T06:48:29.275Z,13.14
2023-01-01T06:50:55.907Z,13.15
2023-01-01T06:53:26.421Z,13.15
2023-01-01T06:55:57.355Z,13.13
2023-01-01T06:58:23.814Z,13.03
2023-01-01T07:00:50.132Z,13.24
2023-01-01T07:03:16.700Z,13.10
2023-01-01T07:05:42.997Z,13.08
2023-01-01T07:08:09.301Z,13.06
2023-01-01T07:10:35.792Z,13.08
2023-01-01T07:13:02.281Z,13.17
2023-01-01T07:15:28.711Z,13.21
2023-01-01T07:17:55.551Z,13.29
2023-01-01T07:20:21.956Z,13.16
2023-01-01T07:22:48.331Z,13.19
2023-01-01T07:25:15.361Z,13.17
2023-01-01T07:27:41.691Z,13.15
2023-01-01T07:30:09.510Z,13.19
2023-01-01T07:32:36.005Z,13.07
2023-01-01T07:35:02.312Z,13.25
2023-01-01T07:37:28.670Z,13.42
2023-01-01T07:39:54.978Z,13.28
2023-01-01T07:42:21.381Z,13.32
2023-01-01T07:44:47.849Z,13.23
2023-01-01T07:47:21.761Z,13.28
2023-01-01T07:49:48.122Z,13.39
2023-01-01T07:52:14.594Z,13.13
2023-01-01T07:54:40.921Z,13.30
2023-01-01T07:57:07.255Z,13.30
2023-01-01T07:59:33.555Z,13.31
2023-01-01T08:01:59.971Z,13.33
2023-01-01T08:04:29.070Z,13.41
2023-01-01T08:06:55.789Z,13.22
2023-01-01T08:09:22.093Z,13.26
2023-01-01T08:11:48.532Z,13.20
2023-01-01T08:14:14.821Z,13.21
2023-01-01T08:16:41.128Z,13.18
2023-01-01T08:19:07.443Z,13.15
2023-01-01T08:21:33.815Z,13.08
2023-01-01T08:24:00.202Z,13.09
2023-01-01T08:26:29.541Z,13.15
2023-01-01T08:28:57.539Z,13.31
2023-01-01T08:31:24.891Z,13.14
2023-01-01T08:33:51.383Z,13.07
2023-01-01T08:36:17.818Z,13.14
2023-01-01T08:38:44.244Z,13.14
2023-01-01T08:41:11.586Z,13.17
2023-01-01T08:43:38.696Z,13.05
2023-01-01T08:46:05.000Z,13.12
2023-01-01T08:48:31.342Z,13.20
2023-01-01T08:51:00.267Z,13.27
2023-01-01T08:53:28.434Z,13.24
2023-01-01T08:56:05.647Z,13.26
2023-01-01T08:58:33.142Z,13.33
2023-01-01T09:00:59.709Z,13.42
2023-01-01T09:03:26.503Z,13.41
2023-01-01T09:05:53.934Z,13.48
2023-01-01T09:08:21.554Z,13.60
2023-01-01T09:10:48.408Z,13.64
2023-01-01T09:13:18.166Z,13.81
2023-01-01T09:15:44.927Z,13.87
2023-01-01T09:18:12.714Z,13.92
2023-01-01T09:20:39.596Z,14.03
2023-01-01T09:23:07.439Z,14.02
2023-01-01T09:25:34.968Z,14.04
2023-01-01T09:28:03.821Z,14.24
2023-01-01T09:30:30.945Z,14.15
2023-01-01T09:32:57.313Z,14.30
2023-01-01T09:35:23.718Z,14.38
2023-01-01T09:37:50.004Z,14.45
2023-01-01T09:40:36.913Z,14.55
2023-01-01T09:43:21.653Z,14.64
2023-01-01T09:46:08.994Z,14.67
2023-01-01T09:48:41.766Z,14.61
2023-01-01T09:51:15.573Z,14.56
2023-01-01T09:53:48.892Z,14.54
2023-01-01T09:56:21.025Z,14.63
2023-01-01T09:58:47.555Z,14.61
2023-01-01T10:01:25.507Z,14.48
2023-01-01T10:04:11.037Z,14.63
2023-01-01T10:07:04.667Z,14.74
2023-01-01T10:09:49.720Z,14.72
2023-01-01T10:12:44.971Z,14.78
2023-01-01T10:15:22.864Z,14.68
2023-01-01T10:17:54.180Z,14.74
2023-01-01T10:20:31.961Z,14.80
2023-01-01T10:23:03.413Z,14.85
2023-01-01T10:25:33.162Z,14.83
2023-01-01T10:28:03.416Z,14.85
2023-01-01T10:30:30.569Z,14.93
2023-01-01T10:32:58.243Z,14.88
2023-01-01T10:35:34.408Z,14.85
2023-01-01T10:38:03.208Z,14.97
2023-01-01T10:40:30.809Z,15.06
2023-01-01T10:42:59.067Z,15.38
2023-01-01T10:45:36.316Z,15.43
2023-01-01T10:48:22.280Z,15.37
2023-01-01T10:50:54.608Z,15.36
2023-01-01T10:53:26.031Z,15.26
2023-01-01T10:56:00.305Z,15.46
2023-01-01T10:58:34.018Z,15.31
2023-01-01T11:01:03.581Z,15.39
2023-01-01T11:03:30.127Z,15.35
2023-01-01T11:06:05.378Z,15.30
2023-01-01T11:08:34.914Z,15.26
2023-01-01T11:11:02.973Z,15.35
2023-01-01T11:13:31.016Z,15.41
2023-01-01T11:15:58.669Z,15.67
2023-01-01T11:18:36.101Z,15.75
2023-01-01T11:21:05.458Z,15.82
2023-01-01T11:23:31.822Z,15.62
2023-01-01T11:25:59.281Z,15.67
2023-01-01T11:28:26.227Z,15.53
2023-01-01T11:31:07.498Z,15.41
2023-01-01T11:33:38.641Z,15.44
2023-01-01T11:36:06.284Z,15.34
2023-01-01T11:38:32.836Z,15.40
2023-01-01T11:41:05.877Z,15.34
2023-01-01T11:43:45.977Z,15.20
2023-01-01T11:46:22.739Z,15.14
2023-01-01T11:48:49.697Z,15.02
2023-01-01T11:51:32.142Z,14.92
2023-01-01T11:54:11.059Z,14.97
2023-01-01T11:56:38.077Z,14.95
2023-01-01T11:59:14.829Z,14.99
2023-01-01T12:01:46.802Z,15.03
2023-01-01T12:04:23.228Z,15.10
2023-01-01T12:06:59.700Z,15.15
2023-01-01T12:10:03.372Z,15.01
2023-01-01T12:12:49.893Z,15.18
2023-01-01T12:15:24.328Z,15.12
2023-01-01T12:18:00.794Z,15.22
2023-01-01T12:20:31.918Z,15.07
2023-01-01T12:22:59.851Z,15.01
2023-01-01T12:25:36.344Z,14.94
2023-01-01T12:28:11.847Z,14.95
2023-01-01T12:31:01.528Z,14.93
2023-01-01T12:33:54.086Z,14.87
2023-01-01T12:36:36.256Z,14.84
2023-01-01T12:39:21.279Z,14.75
2023-01-01T12:42:20.022Z,14.81
2023-01-01T12:45:30.519Z,14.99
2023-01-01T12:48:06.403Z,14.93
2023-01-01T12:50:51.404Z,15.00
2023-01-01T12:53:33.699Z,15.01
2023-01-01T12:56:22.412Z,15.05
2023-01-01T12:59:17.935Z,15.00
2023-01-01T13:01:46.063Z,15.02
2023-01-01T13:04:17.052Z,15.03
2023-01-01T13:07:03.335Z,14.95
2023-01-01T13:09:39.772Z,14.88
2023-01-01T13:12:16.581Z,15.00
2023-01-01T13:14:45.491Z,15.01
2023-01-01T13:17:23.778Z,15.06
2023-01-01T13:19:58.343Z,15.09
2023-01-01T13:22:27.457Z,14.91
2023-01-01T13:25:19.545Z,14.75
2023-01-01T13:27:57.897Z,14.63
2023-01-01T13:30:41.313Z,14.82
2023-01-01T13:33:25.080Z,14.75
2023-01-01T13:36:07.317Z,14.73
2023-01-01T13:38:53.828Z,14.74
2023-01-01T13:41:26.367Z,14.72
2023-01-01T13:43:59.349Z,14.73
2023-01-01T13:46:57.294Z,14.57
2023-01-01T13:49:57.619Z,14.62
2023-01-01T13:52:42.868Z,14.64
2023-01-01T13:55:35.073Z,14.60
2023-01-01T13:58:23.165Z,14.67
2023-01-01T14:01:17.772Z,14.45
2023-01-01T14:03:53.694Z,14.25
2023-01-01T14:06:33.819Z,14.37
2023-01-01T14:09:21.853Z,14.39
2023-01-01T14:11:48.366Z,14.42
2023-01-01T14:14:23.934Z,14.30
2023-01-01T14:16:57.053Z,14.15
2023-01-01T14:19:25.118Z,14.41
2023-01-01T14:21:52.323Z,14.37
2023-01-01T14:24:20.767Z,14.32
2023-01-01T14:26:47.905Z,14.36
2023-01-01T14:29:23.980Z,14.10
2023-01-01T14:31:50.405Z,14.31
2023-01-01T14:34:29.632Z,14.32
2023-01-01T14:36:57.192Z,14.33
2023-01-01T14:39:27.649Z,14.15
2023-01-01T14:41:58.832Z,14.07
2023-01-01T14:44:34.041Z,14.07
2023-01-01T14:47:01.043Z,14.06
2023-01-01T14:49:39.806Z,14.27
2023-01-01T14:52:09.889Z,14.25
2023-01-01T14:54:41.217Z,14.06
2023-01-01T14:57:16.387Z,14.36
2023-01-01T14:59:48.472Z,14.19
2023-01-01T15:02:17.969Z,14.38
2023-01-01T15:04:44.579Z,14.39
2023-01-01T15:07:27.983Z,14.27
2023-01-01T15:09:56.447Z,14.35
2023-01-01T15:12:23.579Z,14.23
2023-01-01T15:14:51.737Z,14.12
2023-01-01T15:17:25.114Z,13.99
2023-01-01T15:20:04.376Z,13.91
2023-01-01T15:22:32.818Z,13.77
2023-01-01T15:25:00.331Z,13.64
2023-01-01T15:27:32.838Z,13.49
2023-01-01T15:29:59.905Z,13.42
2023-01-01T15:32:32.910Z,13.22
2023-01-01T15:35:05.719Z,13.11
2023-01-01T15:37:44.721Z,13.08
2023-01-01T15:40:14.018Z,13.03
2023-01-01T15:42:48.730Z,12.93
2023-01-01T15:45:20.667Z,12.89
2023-01-01T15:47:48.700Z,13.15
2023-01-01T15:50:25.512Z,12.92
2023-01-01T15:53:13.654Z,12.78
2023-01-01T15:55:45.041Z,12.75
2023-01-01T15:58:32.414Z,12.80
2023-01-01T16:01:02.692Z,12.84
2023-01-01T16:03:31.848Z,12.69
2023-01-01T16:05:58.325Z,12.64
2023-01-01T16:08:25.185Z,12.66
2023-01-01T16:10:52.352Z,12.70
2023-01-01T16:13:19.406Z,12.71
2023-01-01T16:15:55.545Z,12.66
2023-01-01T16:18:26.983Z,12.62
2023-01-01T16:20:54.886Z,12.60
2023-01-01T16:23:21.603Z,12.62
2023-01-01T16:25:48.050Z,12.59
2023-01-01T16:28:14.896Z,12.60
2023-01-01T16:30:43.285Z,12.56
2023-01-01T16:33:16.135Z,12.58
2023-01-01T16:35:42.526Z,12.68
2023-01-01T16:38:09.902Z,12.44
2023-01-01T16:40:38.063Z,12.51
2023-01-01T16:43:09.272Z,12.45
2023-01-01T16:45:35.961Z,12.41
2023-01-01T16:48:02.367Z,12.43
2023-01-01T16:50:28.719Z,12.68
2023-01-01T16:52:55.089Z,12.63
2023-01-01T16:55:21.433Z,12.45
2023-01-01T16:57:48.029Z,12.36
2023-01-01T17:00:14.661Z,12.35
2023-01-01T17:02:41.662Z,12.33
2023-01-01T17:05:08.916Z,12.52
2023-01-01T17:07:35.296Z,12.47
2023-01-01T17:10:01.736Z,12.57
2023-01-01T17:12:28.070Z,12.54
2023-01-01T17:14:54.624Z,12.50
2023-01-01T17:17:20.912Z,12.62
2023-01-01T17:19:47.224Z,12.70
2023-01-01T17:22:13.517Z,12.57
2023-01-01T17:24:39.912Z,12.46
2023-01-01T17:27:06.287Z,12.36
2023-01-01T17:29:32.604Z,12.37
2023-01-01T17:31:59.001Z,12.39
2023-01-01T17:34:25.428Z,12.50
2023-01-01T17:36:51.796Z,12.56
2023-01-01T17:39:18.159Z,12.51
2023-01-01T17:41:44.997Z,12.44
2023-01-01T17:44:11.576Z,12.46
2023-01-01T17:46:38.242Z,12.37
2023-01-01T17:49:04.999Z,12.33
2023-01-01T17:51:31.394Z,12.36
2023-01-01T17:53:57.974Z,12.42
2023-01-01T17:56:24.371Z,12.48
2023-01-01T17:58:53.037Z,12.49
2023-01-01T18:01:28.268Z,12.54
2023-01-01T18:04:12.568Z,12.61
2023-01-01T18:06:42.354Z,12.68
2023-01-01T18:09:12.564Z,12.64
2023-01-01T18:11:39.555Z,12.57
2023-01-01T18:14:07.029Z,12.57
2023-01-01T18:16:35.307Z,12.52
2023-01-01T18:19:03.992Z,12.35
2023-01-01T18:21:31.131Z,12.55
2023-01-01T18:23:57.793Z,12.52
2023-01-01T18:26:25.552Z,12.42
2023-01-01T18:28:54.235Z,12.26
2023-01-01T18:31:21.649Z,12.22
2023-01-01T18:33:47.985Z,12.24
2023-01-01T18:36:20.231Z,12.28
2023-01-01T18:38:56.162Z,12.24
2023-01-01T18:41:42.265Z,12.13
2023-01-01T18:44:35.226Z,12.09
2023-01-01T18:47:04.380Z,12.08
2023-01-01T18:49:32.127Z,12.09
2023-01-01T18:52:07.685Z,12.11
2023-01-01T18:54:34.894Z,12.30
2023-01-01T18:57:25.275Z,12.16
2023-01-01T18:59:57.533Z,12.15
2023-01-01T19:02:41.493Z,11.91
2023-01-01T19:05:34.312Z,11.74
2023-01-01T19:08:06.748Z,11.98
2023-01-01T19:10:53.819Z,11.84
2023-01-01T19:13:24.750Z,12.09
2023-01-01T19:15:57.476Z,12.76
2023-01-01T19:18:28.305Z,12.25
2023-01-01T19:21:14.869Z,11.76
2023-01-01T19:23:54.768Z,11.27
2023-01-01T19:26:25.504Z,11.17
2023-01-01T19:28:56.605Z,11.10
2023-01-01T19:31:23.614Z,11.02
2023-01-01T19:33:50.017Z,11.00
2023-01-01T19:36:16.403Z,10.99
2023-01-01T19:38:44.034Z,10.94
2023-01-01T19:41:10.523Z,10.94
2023-01-01T19:43:37.691Z,10.94
2023-01-01T19:46:04.166Z,10.87
2023-01-01T19:48:30.535Z,10.89
2023-01-01T19:50:57.465Z,10.87
2023-01-01T19:53:23.812Z,10.82
2023-01-01T19:55:50.176Z,10.81
2023-01-01T19:58:16.604Z,10.77
2023-01-01T20:00:43.057Z,10.68
2023-01-01T20:03:43.369Z,10.73
2023-01-01T20:05:55.934Z,10.75
2023-01-01T20:08:22.339Z,10.74
2023-01-01T20:10:48.729Z,10.76
2023-01-01T20:13:15.142Z,10.80
2023-01-01T20:15:46.512Z,10.83
2023-01-01T20:18:13.253Z,10.97
2023-01-01T20:20:59.689Z,11.03
2023-01-01T20:23:26.024Z,10.87
2023-01-01T20:25:52.422Z,10.85
2023-01-01T20:28:44.980Z,10.95
2023-01-01T20:31:11.527Z,10.94
2023-01-01T20:33:37.897Z,11.01
2023-01-01T20:36:23.022Z,11.03
2023-01-01T20:38:49.321Z,11.11
2023-01-01T20:41:24.865Z,11.23
2023-01-01T20:43:52.119Z,11.00
2023-01-01T20:46:19.091Z,11.01
2023-01-01T20:48:45.487Z,11.10
2023-01-01T20:51:11.811Z,11.07
2023-01-01T20:53:38.246Z,11.15
2023-01-01T20:56:04.811Z,11.38
2023-01-01T20:58:31.169Z,11.42
2023-01-01T21:00:57.718Z,11.57
2023-01-01T21:03:24.044Z,11.63
2023-01-01T21:05:50.435Z,11.43
2023-01-01T21:08:16.991Z,11.40
2023-01-01T21:10:43.273Z,11.62
2023-01-01T21:13:09.652Z,11.84
2023-01-01T21:15:36.074Z,12.03
2023-01-01T21:18:04.293Z,12.09
2023-01-01T21:20:48.144Z,12.25
2023-01-01T21:23:29.596Z,12.36
2023-01-01T21:25:56.483Z,12.44
2023-01-01T21:28:28.196Z,12.66
2023-01-01T21:30:56.877Z,12.66
2023-01-01T21:33:27.503Z,12.76
2023-01-01T21:35:54.113Z,12.83
2023-01-01T21:38:25.410Z,13.04
2023-01-01T21:40:59.420Z,12.94
2023-01-01T21:43:31.675Z,13.09
2023-01-01T21:46:07.141Z,13.10
2023-01-01T21:48:42.029Z,13.38
2023-01-01T21:51:27.234Z,13.66
2023-01-01T21:54:02.244Z,13.59
2023-01-01T21:56:32.250Z,13.71
2023-01-01T21:59:28.093Z,13.73
2023-01-01T22:02:17.557Z,13.95
2023-01-01T22:04:46.775Z,14.16
2023-01-01T22:10:22.271Z,14.41
2023-01-01T22:12:53.767Z,14.44
2023-01-01T22:15:26.283Z,14.51
2023-01-01T22:18:13.890Z,14.55
2023-01-01T22:20:42.816Z,14.62
2023-01-01T22:23:27.949Z,14.55
2023-01-01T22:25:54.277Z,14.49
2023-01-01T22:28:27.090Z,14.59
2023-01-01T22:30:55.359Z,14.56
2023-01-01T22:33:27.371Z,14.74
2023-01-01T22:35:56.253Z,14.86
2023-01-01T22:38:28.156Z,14.88
2023-01-01T22:40:54.466Z,14.80
2023-01-01T22:43:31.285Z,14.80
2023-01-01T22:45:58.389Z,14.94
2023-01-01T22:48:37.884Z,14.76
2023-01-01T22:51:27.228Z,14.77
2023-01-01T22:53:53.569Z,14.77
2023-01-01T22:56:20.054Z,14.91
2023-01-01T22:58:49.191Z,14.82
2023-01-01T23:01:18.172Z,14.80
2023-01-01T23:03:44.518Z,14.94
2023-01-01T23:06:10.912Z,14.90
2023-01-01T23:08:37.307Z,14.94
2023-01-01T23:11:03.857Z,15.10
2023-01-01T23:13:48.610Z,14.92
2023-01-01T23:16:14.949Z,14.95
2023-01-01T23:18:41.236Z,14.86
2023-01-01T23:21:11.452Z,14.86
2023-01-01T23:23:39.141Z,15.05
2023-01-01T23:26:07.041Z,15.03
2023-01-01T23:28:34.209Z,15.01
2023-01-01T23:31:03.829Z,14.91
2023-01-01T23:33:31.617Z,14.96
2023-01-01T23:35:59.068Z,14.90
2023-01-01T23:38:25.970Z,14.87
2023-01-01T23:40:52.505Z,14.77
2023-01-01T23:43:18.801Z,14.84
2023-01-01T23:45:46.032Z,14.59
2023-01-01T23:48:12.605Z,14.68
2023-01-01T23:50:39.625Z,14.82
2023-01-01T23:53:06.068Z,14.92
2023-01-01T23:55:32.931Z,14.93
2023-01-01T23:57:59.246Z,14.63
